Giddings, TX

8:31 PM CST en Noviembre 23, 2014 (GMT -0600)
Serbin | Change Station
CLOSE
Current Station
Estación meteorológica personal
Location: Giddings, TX
Altura: 430 ft
Estaciones meteorológicas cercanas

Alt 430 ft 30.15 °N, 96.97 °W | Updated 0 second ago

Clear
Despejado
61.3 ° F
Sensación térmica 61.3 ° F
N
0.0
Viento Variable Viento desde SO
Gusts 0.0 mph

Hoy
Alta -- | Baja -- ° F
--% Posibilidad de precipitaciones
Ayer
Alta -- | Baja -- ° F
Precip. -- pul
6:59 AM 5:28 PM
Creciente, 3% visible
Presión 29.68 pul
Visibilidad 10.0 Millas
Nubes Despejado
Punto de rocío 50 ° F
Humedad 67%
Precipitaciones 0.00 pul
Espesor de la nieve No disponible.
UV 0 de una escala de 12
Polen 5.50 de una escala de 12
Calidad del aire No disponible.
Flu Activity No disponible.
METAR KGYB 240215Z AUTO 25004KT 10SM CLR 15/10 A2968 RMK AO2 T01500103

More Conditions Fewer Conditions

Presión 29.68 pul
Visibilidad 10.0 Millas
Nubes Despejado
Punto de rocío 50 ° F
Humedad 67%
Precipitaciones 0.00 pul
Espesor de la nieve No disponible.
UV 0 de una escala de 12
Polen 5.50 de una escala de 12
Calidad del aire No disponible.
Flu Activity No disponible.
METAR KGYB 240215Z AUTO 25004KT 10SM CLR 15/10 A2968 RMK AO2 T01500103

More Conditions Fewer Conditions

10-Day Weather Forecast

Almanac

Astronomía

Nov. 23, 2014 Salida Puesta
Hora real
Crepúsculo civil
Crepúsculo náutico
Crepúsculo astronómico
Luna
Horas de luz
Horas de luz
Tomorrow will be .
, % of the Moon is Illuminated

Extremos de hoy

Máximos del estado Bajos del estado

Community

WunderPhotos

Upload Photos

1,773,257 ¡fotos cargadas!

WunderBlogs® & News

Nearby

Calidad del aire

  Calidad del aire Índice AQ Contaminante
Not available.

Grosos de nieve

Estación Profundido Altura

Actividad de terremotos

Ciudad Distance Mag. Tiempo y dato
Magnitud mínima muestra es 2,5.

Temperaturas de aguas costeras

Lugar Temperatura

Estaciones meteorológicas cercanas